sensor_id;sensor_type;location;lat;lon;timestamp;P1;durP1;ratioP1;P2;durP2;ratioP2
7231;SDS011;3657;49.630;11.018;2023-05-10T00:01:46;6.57;;;6.37;;
7231;SDS011;3657;49.630;11.018;2023-05-10T00:04:12;5.90;;;5.70;;
7231;SDS011;3657;49.630;11.018;2023-05-10T00:06:39;7.57;;;7.17;;
7231;SDS011;3657;49.630;11.018;2023-05-10T00:09:06;6.67;;;6.47;;
7231;SDS011;3657;49.630;11.018;2023-05-10T00:11:32;7.30;;;7.10;;
7231;SDS011;3657;49.630;11.018;2023-05-10T00:13:59;8.23;;;7.97;;
7231;SDS011;3657;49.630;11.018;2023-05-10T00:16:27;7.03;;;6.83;;
7231;SDS011;3657;49.630;11.018;2023-05-10T00:18:54;6.27;;;6.07;;
7231;SDS011;3657;49.630;11.018;2023-05-10T00:21:20;6.83;;;6.63;;
7231;SDS011;3657;49.630;11.018;2023-05-10T00:23:47;6.70;;;6.50;;
7231;SDS011;3657;49.630;11.018;2023-05-10T00:26:14;6.77;;;6.57;;
7231;SDS011;3657;49.630;11.018;2023-05-10T00:28:41;7.87;;;7.53;;
7231;SDS011;3657;49.630;11.018;2023-05-10T00:31:08;7.70;;;7.47;;
7231;SDS011;3657;49.630;11.018;2023-05-10T00:33:36;8.03;;;7.80;;
7231;SDS011;3657;49.630;11.018;2023-05-10T00:36:03;7.93;;;7.63;;
7231;SDS011;3657;49.630;11.018;2023-05-10T00:38:32;9.40;;;9.10;;
7231;SDS011;3657;49.630;11.018;2023-05-10T00:40:59;9.63;;;9.33;;
7231;SDS011;3657;49.630;11.018;2023-05-10T00:43:26;7.57;;;7.37;;
7231;SDS011;3657;49.630;11.018;2023-05-10T00:45:52;7.67;;;7.47;;
7231;SDS011;3657;49.630;11.018;2023-05-10T00:48:19;7.30;;;7.10;;
7231;SDS011;3657;49.630;11.018;2023-05-10T00:50:49;8.67;;;8.17;;
7231;SDS011;3657;49.630;11.018;2023-05-10T00:53:15;7.63;;;7.33;;
7231;SDS011;3657;49.630;11.018;2023-05-10T00:55:43;7.23;;;6.93;;
7231;SDS011;3657;49.630;11.018;2023-05-10T00:58:09;9.13;;;8.63;;
7231;SDS011;3657;49.630;11.018;2023-05-10T01:00:37;7.70;;;7.47;;
7231;SDS011;3657;49.630;11.018;2023-05-10T01:03:07;7.73;;;7.53;;
7231;SDS011;3657;49.630;11.018;2023-05-10T01:05:34;7.77;;;7.57;;
7231;SDS011;3657;49.630;11.018;2023-05-10T01:08:02;6.90;;;6.60;;
7231;SDS011;3657;49.630;11.018;2023-05-10T01:10:29;7.13;;;6.93;;
7231;SDS011;3657;49.630;11.018;2023-05-10T01:12:56;10.13;;;9.83;;
7231;SDS011;3657;49.630;11.018;2023-05-10T01:15:25;9.87;;;9.47;;
7231;SDS011;3657;49.630;11.018;2023-05-10T01:17:52;10.13;;;9.83;;
7231;SDS011;3657;49.630;11.018;2023-05-10T01:20:20;8.77;;;8.47;;
7231;SDS011;3657;49.630;11.018;2023-05-10T01:23:10;8.57;;;8.27;;
7231;SDS011;3657;49.630;11.018;2023-05-10T01:26:02;8.33;;;8.10;;
7231;SDS011;3657;49.630;11.018;2023-05-10T01:32:04;7.80;;;7.57;;
7231;SDS011;3657;49.630;11.018;2023-05-10T01:34:47;7.70;;;7.50;;
7231;SDS011;3657;49.630;11.018;2023-05-10T01:37:20;8.47;;;8.10;;
7231;SDS011;3657;49.630;11.018;2023-05-10T01:39:52;8.23;;;7.93;;
7231;SDS011;3657;49.630;11.018;2023-05-10T01:42:26;8.60;;;8.20;;
7231;SDS011;3657;49.630;11.018;2023-05-10T01:45:02;8.77;;;8.47;;
7231;SDS011;3657;49.630;11.018;2023-05-10T01:47:37;8.87;;;8.47;;
7231;SDS011;3657;49.630;11.018;2023-05-10T01:50:09;8.30;;;8.10;;
7231;SDS011;3657;49.630;11.018;2023-05-10T01:52:41;8.23;;;7.93;;
7231;SDS011;3657;49.630;11.018;2023-05-10T01:55:11;6.80;;;6.60;;
7231;SDS011;3657;49.630;11.018;2023-05-10T01:57:42;8.27;;;7.67;;
7231;SDS011;3657;49.630;11.018;2023-05-10T02:00:11;8.27;;;7.93;;
7231;SDS011;3657;49.630;11.018;2023-05-10T02:02:41;7.00;;;6.80;;
7231;SDS011;3657;49.630;11.018;2023-05-10T02:05:11;7.30;;;7.03;;
7231;SDS011;3657;49.630;11.018;2023-05-10T02:07:39;8.07;;;7.83;;
7231;SDS011;3657;49.630;11.018;2023-05-10T02:10:07;8.17;;;7.93;;
7231;SDS011;3657;49.630;11.018;2023-05-10T02:12:36;7.70;;;7.50;;
7231;SDS011;3657;49.630;11.018;2023-05-10T02:15:05;8.30;;;8.00;;
7231;SDS011;3657;49.630;11.018;2023-05-10T02:17:34;7.87;;;7.67;;
7231;SDS011;3657;49.630;11.018;2023-05-10T02:20:05;8.80;;;8.50;;
7231;SDS011;3657;49.630;11.018;2023-05-10T02:22:33;7.50;;;7.30;;
7231;SDS011;3657;49.630;11.018;2023-05-10T02:25:01;7.47;;;7.27;;
7231;SDS011;3657;49.630;11.018;2023-05-10T02:27:30;8.10;;;7.87;;
7231;SDS011;3657;49.630;11.018;2023-05-10T02:29:57;7.33;;;7.13;;
7231;SDS011;3657;49.630;11.018;2023-05-10T02:32:24;7.97;;;7.77;;
7231;SDS011;3657;49.630;11.018;2023-05-10T02:34:53;8.50;;;8.20;;
7231;SDS011;3657;49.630;11.018;2023-05-10T02:37:23;8.67;;;8.47;;
7231;SDS011;3657;49.630;11.018;2023-05-10T02:39:52;7.77;;;7.57;;
7231;SDS011;3657;49.630;11.018;2023-05-10T02:42:22;7.70;;;7.40;;
7231;SDS011;3657;49.630;11.018;2023-05-10T02:44:52;7.10;;;6.90;;
7231;SDS011;3657;49.630;11.018;2023-05-10T02:47:22;7.93;;;7.53;;
7231;SDS011;3657;49.630;11.018;2023-05-10T02:49:49;7.47;;;7.27;;
7231;SDS011;3657;49.630;11.018;2023-05-10T02:52:16;8.43;;;8.20;;
7231;SDS011;3657;49.630;11.018;2023-05-10T02:54:50;6.03;;;5.77;;
7231;SDS011;3657;49.630;11.018;2023-05-10T02:57:22;5.90;;;5.70;;
7231;SDS011;3657;49.630;11.018;2023-05-10T02:59:52;6.30;;;6.10;;
7231;SDS011;3657;49.630;11.018;2023-05-10T03:02:19;6.57;;;6.37;;
7231;SDS011;3657;49.630;11.018;2023-05-10T03:04:46;5.57;;;5.37;;
7231;SDS011;3657;49.630;11.018;2023-05-10T03:07:13;5.37;;;5.07;;
7231;SDS011;3657;49.630;11.018;2023-05-10T03:09:39;5.87;;;5.67;;
7231;SDS011;3657;49.630;11.018;2023-05-10T03:12:10;5.50;;;5.30;;
7231;SDS011;3657;49.630;11.018;2023-05-10T03:14:47;4.70;;;4.60;;
7231;SDS011;3657;49.630;11.018;2023-05-10T03:17:35;4.90;;;4.80;;
7231;SDS011;3657;49.630;11.018;2023-05-10T03:20:12;4.53;;;4.43;;
7231;SDS011;3657;49.630;11.018;2023-05-10T03:22:47;4.47;;;4.37;;
7231;SDS011;3657;49.630;11.018;2023-05-10T03:25:19;3.87;;;3.73;;
7231;SDS011;3657;49.630;11.018;2023-05-10T03:27:48;4.20;;;4.10;;
7231;SDS011;3657;49.630;11.018;2023-05-10T03:30:17;4.30;;;4.20;;
7231;SDS011;3657;49.630;11.018;2023-05-10T03:32:45;2.73;;;2.63;;
7231;SDS011;3657;49.630;11.018;2023-05-10T03:35:12;3.97;;;3.87;;
7231;SDS011;3657;49.630;11.018;2023-05-10T03:37:39;3.20;;;3.10;;
7231;SDS011;3657;49.630;11.018;2023-05-10T03:40:06;3.37;;;3.27;;
7231;SDS011;3657;49.630;11.018;2023-05-10T03:42:33;2.80;;;2.80;;
7231;SDS011;3657;49.630;11.018;2023-05-10T03:45:02;3.17;;;3.07;;
7231;SDS011;3657;49.630;11.018;2023-05-10T03:47:29;2.60;;;2.60;;
7231;SDS011;3657;49.630;11.018;2023-05-10T03:49:55;3.70;;;3.50;;
7231;SDS011;3657;49.630;11.018;2023-05-10T03:52:22;2.80;;;2.80;;
7231;SDS011;3657;49.630;11.018;2023-05-10T03:54:49;3.00;;;2.90;;
7231;SDS011;3657;49.630;11.018;2023-05-10T03:57:15;3.30;;;3.20;;
7231;SDS011;3657;49.630;11.018;2023-05-10T03:59:42;2.67;;;2.57;;
7231;SDS011;3657;49.630;11.018;2023-05-10T04:02:10;2.80;;;2.80;;
7231;SDS011;3657;49.630;11.018;2023-05-10T04:04:37;2.83;;;2.73;;
7231;SDS011;3657;49.630;11.018;2023-05-10T04:07:03;3.10;;;3.00;;
7231;SDS011;3657;49.630;11.018;2023-05-10T04:09:30;2.50;;;2.50;;
7231;SDS011;3657;49.630;11.018;2023-05-10T04:11:58;2.77;;;2.63;;
7231;SDS011;3657;49.630;11.018;2023-05-10T04:14:24;2.60;;;2.60;;
7231;SDS011;3657;49.630;11.018;2023-05-10T04:16:51;2.80;;;2.80;;
7231;SDS011;3657;49.630;11.018;2023-05-10T04:19:19;2.40;;;2.40;;
7231;SDS011;3657;49.630;11.018;2023-05-10T04:21:46;1.90;;;1.90;;
7231;SDS011;3657;49.630;11.018;2023-05-10T04:24:12;2.30;;;2.30;;
7231;SDS011;3657;49.630;11.018;2023-05-10T04:26:39;1.97;;;1.93;;
7231;SDS011;3657;49.630;11.018;2023-05-10T04:29:06;2.47;;;2.47;;
7231;SDS011;3657;49.630;11.018;2023-05-10T04:31:33;2.10;;;2.10;;
7231;SDS011;3657;49.630;11.018;2023-05-10T04:34:01;2.50;;;2.50;;
7231;SDS011;3657;49.630;11.018;2023-05-10T04:36:29;1.77;;;1.77;;
7231;SDS011;3657;49.630;11.018;2023-05-10T04:38:57;2.23;;;2.23;;
7231;SDS011;3657;49.630;11.018;2023-05-10T04:41:24;2.17;;;2.17;;
7231;SDS011;3657;49.630;11.018;2023-05-10T04:43:50;2.07;;;2.07;;
7231;SDS011;3657;49.630;11.018;2023-05-10T04:46:17;2.30;;;2.27;;
7231;SDS011;3657;49.630;11.018;2023-05-10T04:48:44;2.63;;;2.63;;
7231;SDS011;3657;49.630;11.018;2023-05-10T04:51:10;1.70;;;1.70;;
7231;SDS011;3657;49.630;11.018;2023-05-10T04:53:38;1.57;;;1.57;;
7231;SDS011;3657;49.630;11.018;2023-05-10T04:56:05;1.77;;;1.77;;
7231;SDS011;3657;49.630;11.018;2023-05-10T04:58:32;2.23;;;2.23;;
7231;SDS011;3657;49.630;11.018;2023-05-10T05:01:04;2.03;;;2.03;;
7231;SDS011;3657;49.630;11.018;2023-05-10T05:03:32;2.10;;;2.00;;
7231;SDS011;3657;49.630;11.018;2023-05-10T05:05:58;2.20;;;2.20;;
7231;SDS011;3657;49.630;11.018;2023-05-10T05:08:27;2.00;;;2.00;;
7231;SDS011;3657;49.630;11.018;2023-05-10T05:10:55;2.00;;;2.00;;
7231;SDS011;3657;49.630;11.018;2023-05-10T05:13:22;2.20;;;2.20;;
7231;SDS011;3657;49.630;11.018;2023-05-10T05:15:48;1.70;;;1.70;;
7231;SDS011;3657;49.630;11.018;2023-05-10T05:18:15;2.33;;;2.33;;
7231;SDS011;3657;49.630;11.018;2023-05-10T05:20:42;1.70;;;1.60;;
7231;SDS011;3657;49.630;11.018;2023-05-10T05:23:08;1.90;;;1.90;;
7231;SDS011;3657;49.630;11.018;2023-05-10T05:25:35;1.87;;;1.87;;
7231;SDS011;3657;49.630;11.018;2023-05-10T05:28:03;1.97;;;1.87;;
7231;SDS011;3657;49.630;11.018;2023-05-10T05:30:30;1.37;;;1.37;;
7231;SDS011;3657;49.630;11.018;2023-05-10T05:32:57;2.40;;;2.40;;
7231;SDS011;3657;49.630;11.018;2023-05-10T05:35:24;1.43;;;1.43;;
7231;SDS011;3657;49.630;11.018;2023-05-10T05:37:51;2.00;;;2.00;;
7231;SDS011;3657;49.630;11.018;2023-05-10T05:40:17;1.40;;;1.40;;
7231;SDS011;3657;49.630;11.018;2023-05-10T05:42:45;2.50;;;2.50;;
7231;SDS011;3657;49.630;11.018;2023-05-10T05:45:13;1.63;;;1.63;;
7231;SDS011;3657;49.630;11.018;2023-05-10T05:47:40;1.60;;;1.60;;
7231;SDS011;3657;49.630;11.018;2023-05-10T05:50:07;1.60;;;1.60;;
7231;SDS011;3657;49.630;11.018;2023-05-10T05:52:34;1.97;;;1.97;;
7231;SDS011;3657;49.630;11.018;2023-05-10T05:55:01;1.80;;;1.80;;
7231;SDS011;3657;49.630;11.018;2023-05-10T05:57:28;2.60;;;2.60;;
7231;SDS011;3657;49.630;11.018;2023-05-10T05:59:55;2.07;;;2.07;;
7231;SDS011;3657;49.630;11.018;2023-05-10T06:02:23;2.70;;;2.70;;
7231;SDS011;3657;49.630;11.018;2023-05-10T06:04:50;1.83;;;1.83;;
7231;SDS011;3657;49.630;11.018;2023-05-10T06:07:16;2.43;;;2.43;;
7231;SDS011;3657;49.630;11.018;2023-05-10T06:09:43;2.40;;;2.30;;
7231;SDS011;3657;49.630;11.018;2023-05-10T06:12:10;1.57;;;1.57;;
7231;SDS011;3657;49.630;11.018;2023-05-10T06:14:37;1.73;;;1.73;;
7231;SDS011;3657;49.630;11.018;2023-05-10T06:17:04;1.80;;;1.80;;
7231;SDS011;3657;49.630;11.018;2023-05-10T06:19:33;1.90;;;1.90;;
7231;SDS011;3657;49.630;11.018;2023-05-10T06:21:59;1.80;;;1.80;;
7231;SDS011;3657;49.630;11.018;2023-05-10T06:24:26;1.93;;;1.93;;
7231;SDS011;3657;49.630;11.018;2023-05-10T06:26:53;2.40;;;2.40;;
7231;SDS011;3657;49.630;11.018;2023-05-10T06:29:19;2.10;;;2.10;;
7231;SDS011;3657;49.630;11.018;2023-05-10T06:31:46;1.60;;;1.60;;
7231;SDS011;3657;49.630;11.018;2023-05-10T06:34:13;2.27;;;2.27;;
7231;SDS011;3657;49.630;11.018;2023-05-10T06:36:41;1.97;;;1.97;;
7231;SDS011;3657;49.630;11.018;2023-05-10T06:39:08;1.93;;;1.93;;
7231;SDS011;3657;49.630;11.018;2023-05-10T06:41:36;2.27;;;2.27;;
7231;SDS011;3657;49.630;11.018;2023-05-10T06:44:03;2.20;;;2.20;;
7231;SDS011;3657;49.630;11.018;2023-05-10T06:46:30;2.10;;;2.10;;
7231;SDS011;3657;49.630;11.018;2023-05-10T06:48:56;3.47;;;3.47;;
7231;SDS011;3657;49.630;11.018;2023-05-10T06:51:23;3.30;;;3.20;;
7231;SDS011;3657;49.630;11.018;2023-05-10T06:53:51;2.43;;;2.43;;
7231;SDS011;3657;49.630;11.018;2023-05-10T06:56:18;3.20;;;3.13;;
7231;SDS011;3657;49.630;11.018;2023-05-10T06:58:46;2.40;;;2.40;;
7231;SDS011;3657;49.630;11.018;2023-05-10T07:01:13;2.20;;;2.20;;
7231;SDS011;3657;49.630;11.018;2023-05-10T07:03:39;2.90;;;2.90;;
7231;SDS011;3657;49.630;11.018;2023-05-10T07:06:06;3.00;;;2.90;;
7231;SDS011;3657;49.630;11.018;2023-05-10T07:08:33;2.47;;;2.37;;
7231;SDS011;3657;49.630;11.018;2023-05-10T07:11:02;2.50;;;2.50;;
7231;SDS011;3657;49.630;11.018;2023-05-10T07:13:30;2.33;;;2.33;;
7231;SDS011;3657;49.630;11.018;2023-05-10T07:15:57;2.37;;;2.37;;
7231;SDS011;3657;49.630;11.018;2023-05-10T07:18:24;2.30;;;2.30;;
7231;SDS011;3657;49.630;11.018;2023-05-10T07:20:50;2.13;;;2.13;;
7231;SDS011;3657;49.630;11.018;2023-05-10T07:23:17;2.10;;;2.10;;
7231;SDS011;3657;49.630;11.018;2023-05-10T07:25:45;2.30;;;2.30;;
7231;SDS011;3657;49.630;11.018;2023-05-10T07:28:13;2.53;;;2.50;;
7231;SDS011;3657;49.630;11.018;2023-05-10T07:30:41;2.77;;;2.77;;
7231;SDS011;3657;49.630;11.018;2023-05-10T07:33:08;2.70;;;2.70;;
7231;SDS011;3657;49.630;11.018;2023-05-10T07:35:36;2.80;;;2.70;;
7231;SDS011;3657;49.630;11.018;2023-05-10T07:38:03;2.50;;;2.50;;
7231;SDS011;3657;49.630;11.018;2023-05-10T07:40:31;2.60;;;2.60;;
7231;SDS011;3657;49.630;11.018;2023-05-10T07:42:58;2.50;;;2.50;;
7231;SDS011;3657;49.630;11.018;2023-05-10T07:45:28;2.43;;;2.43;;
7231;SDS011;3657;49.630;11.018;2023-05-10T07:47:54;2.13;;;2.13;;
7231;SDS011;3657;49.630;11.018;2023-05-10T07:50:21;2.50;;;2.40;;
7231;SDS011;3657;49.630;11.018;2023-05-10T07:52:48;2.83;;;2.83;;
7231;SDS011;3657;49.630;11.018;2023-05-10T07:55:15;2.10;;;2.10;;
7231;SDS011;3657;49.630;11.018;2023-05-10T07:57:41;2.00;;;2.00;;
7231;SDS011;3657;49.630;11.018;2023-05-10T08:00:08;3.30;;;3.20;;
7231;SDS011;3657;49.630;11.018;2023-05-10T08:02:39;2.73;;;2.53;;
7231;SDS011;3657;49.630;11.018;2023-05-10T08:05:07;1.83;;;1.83;;
7231;SDS011;3657;49.630;11.018;2023-05-10T08:07:34;2.17;;;2.17;;
7231;SDS011;3657;49.630;11.018;2023-05-10T08:10:01;1.70;;;1.67;;
7231;SDS011;3657;49.630;11.018;2023-05-10T08:12:28;2.50;;;2.50;;
7231;SDS011;3657;49.630;11.018;2023-05-10T08:14:55;2.23;;;2.20;;
7231;SDS011;3657;49.630;11.018;2023-05-10T08:17:22;2.30;;;2.30;;
7231;SDS011;3657;49.630;11.018;2023-05-10T08:19:50;2.57;;;2.57;;
7231;SDS011;3657;49.630;11.018;2023-05-10T08:22:16;2.70;;;2.70;;
7231;SDS011;3657;49.630;11.018;2023-05-10T08:24:43;3.40;;;3.30;;
7231;SDS011;3657;49.630;11.018;2023-05-10T08:27:10;2.97;;;2.97;;
7231;SDS011;3657;49.630;11.018;2023-05-10T08:29:37;2.90;;;2.70;;
7231;SDS011;3657;49.630;11.018;2023-05-10T08:32:04;3.20;;;3.10;;
7231;SDS011;3657;49.630;11.018;2023-05-10T08:34:30;2.80;;;2.80;;
7231;SDS011;3657;49.630;11.018;2023-05-10T08:36:58;2.70;;;2.70;;
7231;SDS011;3657;49.630;11.018;2023-05-10T08:39:25;2.60;;;2.60;;
7231;SDS011;3657;49.630;11.018;2023-05-10T08:41:52;2.60;;;2.60;;
7231;SDS011;3657;49.630;11.018;2023-05-10T08:44:24;2.70;;;2.70;;
7231;SDS011;3657;49.630;11.018;2023-05-10T08:46:52;2.87;;;2.87;;
7231;SDS011;3657;49.630;11.018;2023-05-10T08:49:20;3.10;;;3.00;;
7231;SDS011;3657;49.630;11.018;2023-05-10T08:51:49;3.30;;;3.20;;
7231;SDS011;3657;49.630;11.018;2023-05-10T08:54:22;2.83;;;2.73;;
7231;SDS011;3657;49.630;11.018;2023-05-10T08:56:49;2.97;;;2.80;;
7231;SDS011;3657;49.630;11.018;2023-05-10T08:59:16;2.90;;;2.90;;
7231;SDS011;3657;49.630;11.018;2023-05-10T09:01:43;3.13;;;3.00;;
7231;SDS011;3657;49.630;11.018;2023-05-10T09:04:12;2.30;;;2.30;;
7231;SDS011;3657;49.630;11.018;2023-05-10T09:06:39;2.20;;;2.20;;
7231;SDS011;3657;49.630;11.018;2023-05-10T09:09:05;2.40;;;2.20;;
7231;SDS011;3657;49.630;11.018;2023-05-10T09:11:34;2.50;;;2.47;;
7231;SDS011;3657;49.630;11.018;2023-05-10T09:14:01;2.93;;;2.83;;
7231;SDS011;3657;49.630;11.018;2023-05-10T09:16:28;2.17;;;2.17;;
7231;SDS011;3657;49.630;11.018;2023-05-10T09:18:55;2.40;;;2.40;;
7231;SDS011;3657;49.630;11.018;2023-05-10T09:21:22;2.57;;;2.57;;
7231;SDS011;3657;49.630;11.018;2023-05-10T09:23:49;1.40;;;1.40;;
7231;SDS011;3657;49.630;11.018;2023-05-10T09:26:15;3.00;;;2.90;;
7231;SDS011;3657;49.630;11.018;2023-05-10T09:28:54;2.63;;;2.63;;
7231;SDS011;3657;49.630;11.018;2023-05-10T09:31:21;2.67;;;2.67;;
7231;SDS011;3657;49.630;11.018;2023-05-10T09:33:50;3.00;;;3.00;;
7231;SDS011;3657;49.630;11.018;2023-05-10T09:36:17;2.93;;;2.83;;
7231;SDS011;3657;49.630;11.018;2023-05-10T09:38:47;2.50;;;2.50;;
7231;SDS011;3657;49.630;11.018;2023-05-10T09:41:18;4.10;;;3.90;;
7231;SDS011;3657;49.630;11.018;2023-05-10T09:43:46;3.30;;;3.20;;
7231;SDS011;3657;49.630;11.018;2023-05-10T09:46:14;3.63;;;3.53;;
7231;SDS011;3657;49.630;11.018;2023-05-10T09:48:42;3.00;;;2.90;;
7231;SDS011;3657;49.630;11.018;2023-05-10T09:51:10;3.50;;;3.40;;
7231;SDS011;3657;49.630;11.018;2023-05-10T09:53:37;3.33;;;3.23;;
7231;SDS011;3657;49.630;11.018;2023-05-10T09:56:03;2.40;;;2.30;;
7231;SDS011;3657;49.630;11.018;2023-05-10T09:58:30;3.53;;;3.43;;
7231;SDS011;3657;49.630;11.018;2023-05-10T10:00:57;3.37;;;3.27;;
7231;SDS011;3657;49.630;11.018;2023-05-10T10:03:25;3.37;;;3.27;;
7231;SDS011;3657;49.630;11.018;2023-05-10T10:05:52;3.00;;;2.90;;
7231;SDS011;3657;49.630;11.018;2023-05-10T10:08:21;3.10;;;3.00;;
7231;SDS011;3657;49.630;11.018;2023-05-10T10:10:48;2.17;;;2.17;;
7231;SDS011;3657;49.630;11.018;2023-05-10T10:13:15;2.80;;;2.70;;
7231;SDS011;3657;49.630;11.018;2023-05-10T10:15:42;3.10;;;3.00;;
7231;SDS011;3657;49.630;11.018;2023-05-10T10:18:12;3.43;;;3.23;;
7231;SDS011;3657;49.630;11.018;2023-05-10T10:20:41;2.40;;;2.40;;
7231;SDS011;3657;49.630;11.018;2023-05-10T10:23:08;3.07;;;2.97;;
7231;SDS011;3657;49.630;11.018;2023-05-10T10:25:35;3.10;;;3.00;;
7231;SDS011;3657;49.630;11.018;2023-05-10T10:28:16;3.93;;;3.83;;
7231;SDS011;3657;49.630;11.018;2023-05-10T10:30:50;3.10;;;3.00;;
7231;SDS011;3657;49.630;11.018;2023-05-10T10:33:33;3.00;;;2.90;;
7231;SDS011;3657;49.630;11.018;2023-05-10T10:36:07;2.77;;;2.57;;
7231;SDS011;3657;49.630;11.018;2023-05-10T10:38:38;2.33;;;2.23;;
7231;SDS011;3657;49.630;11.018;2023-05-10T10:41:28;2.67;;;2.57;;
7231;SDS011;3657;49.630;11.018;2023-05-10T10:47:02;2.73;;;2.63;;
7231;SDS011;3657;49.630;11.018;2023-05-10T10:49:33;3.00;;;2.90;;
7231;SDS011;3657;49.630;11.018;2023-05-10T10:52:14;2.93;;;2.70;;
7231;SDS011;3657;49.630;11.018;2023-05-10T10:54:56;2.63;;;2.53;;
7231;SDS011;3657;49.630;11.018;2023-05-10T10:57:25;2.50;;;2.40;;
7231;SDS011;3657;49.630;11.018;2023-05-10T10:59:54;3.37;;;3.20;;
7231;SDS011;3657;49.630;11.018;2023-05-10T11:02:44;1.63;;;1.53;;
7231;SDS011;3657;49.630;11.018;2023-05-10T11:08:13;3.30;;;3.20;;
7231;SDS011;3657;49.630;11.018;2023-05-10T11:10:49;3.20;;;3.10;;
7231;SDS011;3657;49.630;11.018;2023-05-10T11:13:21;2.90;;;2.87;;
7231;SDS011;3657;49.630;11.018;2023-05-10T11:15:54;3.00;;;2.87;;
7231;SDS011;3657;49.630;11.018;2023-05-10T11:18:23;3.07;;;2.97;;
7231;SDS011;3657;49.630;11.018;2023-05-10T11:20:50;2.33;;;2.23;;
7231;SDS011;3657;49.630;11.018;2023-05-10T11:23:19;3.10;;;3.10;;
7231;SDS011;3657;49.630;11.018;2023-05-10T11:25:47;3.10;;;3.00;;
7231;SDS011;3657;49.630;11.018;2023-05-10T11:28:16;3.00;;;2.90;;
7231;SDS011;3657;49.630;11.018;2023-05-10T11:30:44;3.23;;;3.13;;
7231;SDS011;3657;49.630;11.018;2023-05-10T11:33:14;3.13;;;3.03;;
7231;SDS011;3657;49.630;11.018;2023-05-10T11:35:42;2.90;;;2.80;;
7231;SDS011;3657;49.630;11.018;2023-05-10T11:38:10;2.83;;;2.73;;
7231;SDS011;3657;49.630;11.018;2023-05-10T11:40:39;3.03;;;2.93;;
7231;SDS011;3657;49.630;11.018;2023-05-10T11:43:08;3.23;;;3.13;;
7231;SDS011;3657;49.630;11.018;2023-05-10T11:45:35;3.50;;;3.40;;
7231;SDS011;3657;49.630;11.018;2023-05-10T11:48:02;3.30;;;3.10;;
7231;SDS011;3657;49.630;11.018;2023-05-10T11:50:29;3.80;;;3.67;;
7231;SDS011;3657;49.630;11.018;2023-05-10T11:52:56;3.30;;;3.20;;
7231;SDS011;3657;49.630;11.018;2023-05-10T11:55:24;3.33;;;3.13;;
7231;SDS011;3657;49.630;11.018;2023-05-10T11:57:54;3.17;;;3.17;;
7231;SDS011;3657;49.630;11.018;2023-05-10T12:00:25;3.33;;;3.23;;
7231;SDS011;3657;49.630;11.018;2023-05-10T12:02:52;2.20;;;2.20;;
7231;SDS011;3657;49.630;11.018;2023-05-10T12:05:19;2.60;;;2.57;;
7231;SDS011;3657;49.630;11.018;2023-05-10T12:07:46;2.20;;;2.20;;
7231;SDS011;3657;49.630;11.018;2023-05-10T12:10:13;2.67;;;2.57;;
7231;SDS011;3657;49.630;11.018;2023-05-10T12:12:41;2.97;;;2.87;;
7231;SDS011;3657;49.630;11.018;2023-05-10T12:15:16;2.60;;;2.50;;
7231;SDS011;3657;49.630;11.018;2023-05-10T12:17:44;2.83;;;2.73;;
7231;SDS011;3657;49.630;11.018;2023-05-10T12:20:14;2.60;;;2.50;;
7231;SDS011;3657;49.630;11.018;2023-05-10T12:22:43;3.10;;;3.00;;
7231;SDS011;3657;49.630;11.018;2023-05-10T12:25:11;3.00;;;2.90;;
7231;SDS011;3657;49.630;11.018;2023-05-10T12:27:38;3.10;;;3.00;;
7231;SDS011;3657;49.630;11.018;2023-05-10T12:30:05;2.63;;;2.63;;
7231;SDS011;3657;49.630;11.018;2023-05-10T12:32:40;3.43;;;3.13;;
7231;SDS011;3657;49.630;11.018;2023-05-10T12:35:07;3.53;;;3.43;;
7231;SDS011;3657;49.630;11.018;2023-05-10T12:37:34;3.50;;;3.40;;
7231;SDS011;3657;49.630;11.018;2023-05-10T12:40:05;2.70;;;2.70;;
7231;SDS011;3657;49.630;11.018;2023-05-10T12:42:34;3.10;;;3.00;;
7231;SDS011;3657;49.630;11.018;2023-05-10T12:45:01;3.77;;;3.67;;
7231;SDS011;3657;49.630;11.018;2023-05-10T12:47:28;3.03;;;2.93;;
7231;SDS011;3657;49.630;11.018;2023-05-10T12:49:56;3.37;;;3.27;;
7231;SDS011;3657;49.630;11.018;2023-05-10T12:52:23;3.23;;;3.10;;
7231;SDS011;3657;49.630;11.018;2023-05-10T12:54:50;3.00;;;2.90;;
7231;SDS011;3657;49.630;11.018;2023-05-10T12:57:16;3.00;;;3.00;;
7231;SDS011;3657;49.630;11.018;2023-05-10T12:59:43;3.40;;;3.20;;
7231;SDS011;3657;49.630;11.018;2023-05-10T13:02:10;2.73;;;2.73;;
7231;SDS011;3657;49.630;11.018;2023-05-10T13:04:36;2.63;;;2.63;;
7231;SDS011;3657;49.630;11.018;2023-05-10T13:07:05;2.80;;;2.70;;
7231;SDS011;3657;49.630;11.018;2023-05-10T13:09:32;2.90;;;2.90;;
7231;SDS011;3657;49.630;11.018;2023-05-10T13:11:59;2.60;;;2.60;;
7231;SDS011;3657;49.630;11.018;2023-05-10T13:14:26;2.90;;;2.80;;
7231;SDS011;3657;49.630;11.018;2023-05-10T13:16:53;2.53;;;2.43;;
7231;SDS011;3657;49.630;11.018;2023-05-10T13:19:20;3.00;;;2.90;;
7231;SDS011;3657;49.630;11.018;2023-05-10T13:21:46;3.07;;;2.97;;
7231;SDS011;3657;49.630;11.018;2023-05-10T13:24:14;3.70;;;3.53;;
7231;SDS011;3657;49.630;11.018;2023-05-10T13:26:42;2.73;;;2.73;;
7231;SDS011;3657;49.630;11.018;2023-05-10T13:29:08;3.30;;;3.20;;
7231;SDS011;3657;49.630;11.018;2023-05-10T13:31:35;2.80;;;2.80;;
7231;SDS011;3657;49.630;11.018;2023-05-10T13:34:02;2.87;;;2.77;;
7231;SDS011;3657;49.630;11.018;2023-05-10T13:36:29;3.00;;;3.00;;
7231;SDS011;3657;49.630;11.018;2023-05-10T13:38:56;3.33;;;3.10;;
7231;SDS011;3657;49.630;11.018;2023-05-10T13:41:24;3.53;;;3.33;;
7231;SDS011;3657;49.630;11.018;2023-05-10T13:43:51;3.97;;;3.60;;
7231;SDS011;3657;49.630;11.018;2023-05-10T13:46:17;2.87;;;2.80;;
7231;SDS011;3657;49.630;11.018;2023-05-10T13:48:44;2.80;;;2.70;;
7231;SDS011;3657;49.630;11.018;2023-05-10T13:51:11;3.70;;;3.60;;
7231;SDS011;3657;49.630;11.018;2023-05-10T13:53:37;3.87;;;3.77;;
7231;SDS011;3657;49.630;11.018;2023-05-10T13:56:04;3.50;;;3.40;;
7231;SDS011;3657;49.630;11.018;2023-05-10T13:58:33;3.93;;;3.83;;
7231;SDS011;3657;49.630;11.018;2023-05-10T14:01:00;4.13;;;4.03;;
7231;SDS011;3657;49.630;11.018;2023-05-10T14:03:27;3.97;;;3.77;;
7231;SDS011;3657;49.630;11.018;2023-05-10T14:05:54;3.57;;;3.47;;
7231;SDS011;3657;49.630;11.018;2023-05-10T14:08:20;3.60;;;3.40;;
7231;SDS011;3657;49.630;11.018;2023-05-10T14:10:47;3.17;;;3.07;;
7231;SDS011;3657;49.630;11.018;2023-05-10T14:13:15;2.97;;;2.77;;
7231;SDS011;3657;49.630;11.018;2023-05-10T14:15:43;3.00;;;2.90;;
7231;SDS011;3657;49.630;11.018;2023-05-10T14:18:10;3.37;;;3.27;;
7231;SDS011;3657;49.630;11.018;2023-05-10T14:20:36;3.00;;;2.90;;
7231;SDS011;3657;49.630;11.018;2023-05-10T14:23:03;3.00;;;3.00;;
7231;SDS011;3657;49.630;11.018;2023-05-10T14:25:30;3.80;;;3.70;;
7231;SDS011;3657;49.630;11.018;2023-05-10T14:27:58;2.77;;;2.77;;
7231;SDS011;3657;49.630;11.018;2023-05-10T14:30:24;4.40;;;3.43;;
7231;SDS011;3657;49.630;11.018;2023-05-10T14:32:53;3.57;;;3.47;;
7231;SDS011;3657;49.630;11.018;2023-05-10T14:35:20;2.83;;;2.73;;
7231;SDS011;3657;49.630;11.018;2023-05-10T14:37:47;2.40;;;2.30;;
7231;SDS011;3657;49.630;11.018;2023-05-10T14:40:13;2.90;;;2.20;;
7231;SDS011;3657;49.630;11.018;2023-05-10T14:42:42;3.50;;;3.40;;
7231;SDS011;3657;49.630;11.018;2023-05-10T14:45:09;3.33;;;3.23;;
7231;SDS011;3657;49.630;11.018;2023-05-10T14:47:37;4.13;;;4.03;;
7231;SDS011;3657;49.630;11.018;2023-05-10T14:50:05;3.90;;;3.73;;
7231;SDS011;3657;49.630;11.018;2023-05-10T14:52:32;4.20;;;4.00;;
7231;SDS011;3657;49.630;11.018;2023-05-10T14:54:59;3.60;;;3.50;;
7231;SDS011;3657;49.630;11.018;2023-05-10T14:57:26;4.20;;;4.00;;
7231;SDS011;3657;49.630;11.018;2023-05-10T14:59:54;3.67;;;3.47;;
7231;SDS011;3657;49.630;11.018;2023-05-10T15:02:21;3.40;;;3.30;;
7231;SDS011;3657;49.630;11.018;2023-05-10T15:04:47;3.50;;;3.40;;
7231;SDS011;3657;49.630;11.018;2023-05-10T15:07:15;3.53;;;3.33;;
7231;SDS011;3657;49.630;11.018;2023-05-10T15:09:43;2.87;;;2.73;;
7231;SDS011;3657;49.630;11.018;2023-05-10T15:12:10;2.90;;;2.90;;
7231;SDS011;3657;49.630;11.018;2023-05-10T15:14:36;3.77;;;3.47;;
7231;SDS011;3657;49.630;11.018;2023-05-10T15:17:05;4.00;;;3.90;;